ASE5714 UNAA-ZBSJ
Flight info
| Callsign | ASE5714 |
|---|---|
| Flight time | 2h 56m |
| Altitude | 39000 |
| Route | INBER1C INBER A308 TR P982 DARNO/K0833S1190 Y746 NIXAL G343 TMR B458 VADKA VADKA8ZA |
| Aircraft | A310/H-SDFGHIM1RTUWXY/LB1 |
Departure
| Time | 2026-05-08 16:24 |
|---|---|
| Airport | Abakan International Airport (UNAA) |
Arrival
| Time | 2026-05-08 19:21 |
|---|---|
| Airport | Shijiazhuang Zhengding International Airport (ZBSJ) |
| Time | Latitude | Longitude | Altitude | Speed | Heading |
|---|---|---|---|---|---|
| 2026-05-08 15:27 | 53.74881 | 91.39608 | 825 ft | 0 kts | 114° |
| 2026-05-08 16:19 | 53.74880 | 91.39612 | 817 ft | 1 kts | 114° |
| 2026-05-08 16:19 | 53.74873 | 91.39641 | 809 ft | 4 kts | 110° |
| 2026-05-08 16:20 | 53.74877 | 91.39692 | 811 ft | 4 kts | 63° |
| 2026-05-08 16:20 | 53.74904 | 91.39729 | 813 ft | 6 kts | 27° |
| 2026-05-08 16:20 | 53.74959 | 91.39741 | 809 ft | 9 kts | 354° |
| 2026-05-08 16:20 | 53.75020 | 91.39708 | 811 ft | 10 kts | 341° |
| 2026-05-08 16:21 | 53.75085 | 91.39670 | 808 ft | 8 kts | 341° |
| 2026-05-08 16:21 | 53.75116 | 91.39652 | 809 ft | 0 kts | 341° |
| 2026-05-08 16:22 | 53.75119 | 91.39650 | 810 ft | 2 kts | 341° |
| 2026-05-08 16:22 | 53.75170 | 91.39622 | 804 ft | 13 kts | 341° |
| 2026-05-08 16:22 | 53.75240 | 91.39561 | 808 ft | 9 kts | 303° |
| 2026-05-08 16:22 | 53.75226 | 91.39474 | 806 ft | 8 kts | 216° |
| 2026-05-08 16:23 | 53.75190 | 91.39440 | 807 ft | 0 kts | 206° |
| 2026-05-08 16:23 | 53.75169 | 91.39422 | 811 ft | 19 kts | 206° |
| 2026-05-08 16:23 | 53.74824 | 91.39152 | 810 ft | 89 kts | 205° |
| 2026-05-08 16:24 | 53.74072 | 91.38569 | 812 ft | 146 kts | 205° |
| 2026-05-08 16:24 | 53.73018 | 91.37781 | 1026 ft | 176 kts | 203° |
| 2026-05-08 16:24 | 53.71843 | 91.37024 | 1628 ft | 182 kts | 204° |
| 2026-05-08 16:24 | 53.70719 | 91.36172 | 2515 ft | 174 kts | 206° |
| 2026-05-08 16:25 | 53.69578 | 91.35285 | 3080 ft | 188 kts | 206° |
| 2026-05-08 16:25 | 53.68359 | 91.34342 | 3724 ft | 197 kts | 206° |
| 2026-05-08 16:25 | 53.66995 | 91.33825 | 4390 ft | 210 kts | 171° |
| 2026-05-08 16:25 | 53.65716 | 91.35015 | 5070 ft | 218 kts | 127° |
| 2026-05-08 16:26 | 53.64946 | 91.37254 | 5747 ft | 230 kts | 115° |
| 2026-05-08 16:26 | 53.64241 | 91.39748 | 6536 ft | 242 kts | 115° |
| 2026-05-08 16:26 | 53.63487 | 91.42351 | 7329 ft | 253 kts | 116° |
| 2026-05-08 16:26 | 53.62683 | 91.45072 | 8117 ft | 267 kts | 116° |
| 2026-05-08 16:27 | 53.61811 | 91.47925 | 8906 ft | 280 kts | 117° |
| 2026-05-08 16:27 | 53.60896 | 91.50892 | 9820 ft | 289 kts | 117° |
| 2026-05-08 16:27 | 53.59949 | 91.53951 | 10547 ft | 304 kts | 117° |
| 2026-05-08 16:27 | 53.58932 | 91.57220 | 11051 ft | 325 kts | 117° |
| 2026-05-08 16:28 | 53.57855 | 91.60675 | 11661 ft | 342 kts | 117° |
| 2026-05-08 16:28 | 53.56725 | 91.64293 | 12332 ft | 356 kts | 117° |
| 2026-05-08 16:28 | 53.55552 | 91.68039 | 13029 ft | 368 kts | 117° |
| 2026-05-08 16:28 | 53.54356 | 91.71848 | 13757 ft | 378 kts | 117° |
| 2026-05-08 16:29 | 53.53088 | 91.75872 | 14337 ft | 391 kts | 117° |
| 2026-05-08 16:29 | 53.51804 | 91.79940 | 14778 ft | 406 kts | 117° |
| 2026-05-08 16:29 | 53.50245 | 91.83977 | 15313 ft | 418 kts | 128° |
| 2026-05-08 16:29 | 53.48260 | 91.87603 | 16007 ft | 425 kts | 134° |
| 2026-05-08 16:30 | 53.46157 | 91.91140 | 16690 ft | 431 kts | 135° |
| 2026-05-08 16:30 | 53.44046 | 91.94763 | 17414 ft | 436 kts | 134° |
| 2026-05-08 16:30 | 53.41949 | 91.98483 | 18103 ft | 441 kts | 133° |
| 2026-05-08 16:30 | 53.39844 | 92.02269 | 18740 ft | 446 kts | 133° |
| 2026-05-08 16:31 | 53.37686 | 92.06047 | 19346 ft | 450 kts | 135° |
| 2026-05-08 16:31 | 53.35409 | 92.09677 | 19957 ft | 454 kts | 137° |
| 2026-05-08 16:31 | 53.33106 | 92.13230 | 20556 ft | 459 kts | 137° |
| 2026-05-08 16:31 | 53.30747 | 92.16862 | 21158 ft | 463 kts | 137° |
| 2026-05-08 16:32 | 53.28367 | 92.20528 | 21780 ft | 467 kts | 137° |
| 2026-05-08 16:32 | 53.25966 | 92.24228 | 22384 ft | 472 kts | 137° |
| 2026-05-08 16:32 | 53.23543 | 92.27967 | 22970 ft | 477 kts | 137° |
| 2026-05-08 16:32 | 53.21096 | 92.31747 | 23553 ft | 481 kts | 137° |
| 2026-05-08 16:33 | 53.18626 | 92.35566 | 24062 ft | 486 kts | 137° |
| 2026-05-08 16:33 | 53.16143 | 92.39414 | 24572 ft | 489 kts | 137° |
| 2026-05-08 16:33 | 53.13645 | 92.43294 | 25089 ft | 493 kts | 137° |
| 2026-05-08 16:33 | 53.11128 | 92.47215 | 25592 ft | 497 kts | 137° |
| 2026-05-08 16:34 | 53.08582 | 92.51169 | 25845 ft | 502 kts | 138° |
| 2026-05-08 16:34 | 53.06004 | 92.55103 | 25962 ft | 502 kts | 138° |
| 2026-05-08 16:34 | 53.03424 | 92.59022 | 26033 ft | 503 kts | 138° |
| 2026-05-08 16:34 | 53.00851 | 92.62978 | 26027 ft | 503 kts | 138° |
| 2026-05-08 16:35 | 52.98309 | 92.66868 | 26031 ft | 504 kts | 138° |
| 2026-05-08 16:35 | 52.95725 | 92.70799 | 26028 ft | 504 kts | 138° |
| 2026-05-08 16:35 | 52.93138 | 92.74719 | 26022 ft | 504 kts | 138° |
| 2026-05-08 16:35 | 52.90551 | 92.78635 | 26023 ft | 504 kts | 138° |
| 2026-05-08 16:36 | 52.87970 | 92.82592 | 26034 ft | 504 kts | 138° |
| 2026-05-08 16:36 | 52.85388 | 92.86521 | 26023 ft | 504 kts | 138° |
| 2026-05-08 16:36 | 52.82799 | 92.90445 | 26022 ft | 505 kts | 138° |
| 2026-05-08 16:36 | 52.80206 | 92.94370 | 26026 ft | 504 kts | 138° |
| 2026-05-08 16:37 | 52.77619 | 92.98282 | 26035 ft | 504 kts | 138° |
| 2026-05-08 16:37 | 52.75026 | 93.02197 | 26033 ft | 504 kts | 138° |
| 2026-05-08 16:37 | 52.72437 | 93.06107 | 26030 ft | 504 kts | 138° |
| 2026-05-08 16:37 | 52.69843 | 93.10025 | 26473 ft | 505 kts | 138° |
| 2026-05-08 16:38 | 52.67252 | 93.13899 | 27350 ft | 500 kts | 139° |
| 2026-05-08 16:38 | 52.64667 | 93.17714 | 28126 ft | 498 kts | 139° |
| 2026-05-08 16:38 | 52.62103 | 93.21551 | 28846 ft | 497 kts | 138° |
| 2026-05-08 16:38 | 52.59546 | 93.25370 | 29557 ft | 496 kts | 138° |
| 2026-05-08 16:39 | 52.56973 | 93.29169 | 30205 ft | 495 kts | 139° |
| 2026-05-08 16:39 | 52.54451 | 93.32913 | 30772 ft | 495 kts | 138° |
| 2026-05-08 16:39 | 52.51906 | 93.36718 | 31335 ft | 494 kts | 138° |
| 2026-05-08 16:39 | 52.49349 | 93.40489 | 31891 ft | 494 kts | 139° |
| 2026-05-08 16:40 | 52.46789 | 93.44254 | 32428 ft | 494 kts | 138° |
| 2026-05-08 16:40 | 52.44245 | 93.48030 | 33002 ft | 493 kts | 138° |
| 2026-05-08 16:40 | 52.41690 | 93.51784 | 33576 ft | 492 kts | 139° |
| 2026-05-08 16:40 | 52.39135 | 93.55522 | 34120 ft | 492 kts | 138° |
| 2026-05-08 16:41 | 52.36595 | 93.59286 | 34576 ft | 491 kts | 138° |
| 2026-05-08 16:41 | 52.34084 | 93.62986 | 35021 ft | 491 kts | 138° |
| 2026-05-08 16:41 | 52.31536 | 93.66706 | 35485 ft | 490 kts | 139° |
| 2026-05-08 16:42 | 52.26455 | 93.74108 | 36345 ft | 489 kts | 139° |
| 2026-05-08 16:42 | 52.23912 | 93.77810 | 36772 ft | 488 kts | 138° |
| 2026-05-08 16:42 | 52.21383 | 93.81499 | 37175 ft | 488 kts | 138° |
| 2026-05-08 16:42 | 52.18853 | 93.85187 | 37588 ft | 487 kts | 138° |
| 2026-05-08 16:43 | 52.16328 | 93.88866 | 37999 ft | 486 kts | 138° |
| 2026-05-08 16:43 | 52.13906 | 93.92707 | 38393 ft | 485 kts | 128° |
| 2026-05-08 16:43 | 52.12011 | 93.97211 | 38775 ft | 483 kts | 118° |
| 2026-05-08 16:43 | 52.10405 | 94.02040 | 38885 ft | 486 kts | 116° |
| 2026-05-08 16:44 | 52.08816 | 94.06874 | 39005 ft | 484 kts | 118° |
| 2026-05-08 16:44 | 52.05405 | 94.16238 | 38989 ft | 484 kts | 121° |
| 2026-05-08 16:45 | 52.01840 | 94.25499 | 38999 ft | 483 kts | 121° |
| 2026-05-08 16:45 | 51.98315 | 94.34781 | 38983 ft | 482 kts | 120° |
| 2026-05-08 16:46 | 51.94774 | 94.44046 | 38983 ft | 482 kts | 121° |
| 2026-05-08 16:46 | 51.91230 | 94.53268 | 38990 ft | 482 kts | 121° |
| 2026-05-08 16:47 | 51.87688 | 94.62509 | 38971 ft | 483 kts | 121° |
| 2026-05-08 16:47 | 51.84159 | 94.71735 | 38980 ft | 482 kts | 121° |
| 2026-05-08 16:48 | 51.80608 | 94.80874 | 38976 ft | 482 kts | 122° |
| 2026-05-08 16:48 | 51.77049 | 94.90059 | 38938 ft | 482 kts | 121° |
| 2026-05-08 16:49 | 51.73471 | 94.99244 | 38959 ft | 484 kts | 121° |
| 2026-05-08 16:49 | 51.69886 | 95.08433 | 38968 ft | 483 kts | 121° |
| 2026-05-08 16:50 | 51.66279 | 95.17576 | 38978 ft | 483 kts | 121° |
| 2026-05-08 16:50 | 51.62679 | 95.26713 | 38971 ft | 483 kts | 121° |
| 2026-05-08 16:51 | 51.59688 | 95.34297 | 38977 ft | 483 kts | 121° |
| 2026-05-08 16:51 | 51.55495 | 95.44883 | 38979 ft | 482 kts | 121° |
| 2026-05-08 16:52 | 51.51891 | 95.53979 | 38981 ft | 482 kts | 121° |
| 2026-05-08 16:52 | 51.48898 | 95.61524 | 38975 ft | 482 kts | 122° |
| 2026-05-08 16:53 | 51.43448 | 95.75079 | 38981 ft | 482 kts | 122° |
| 2026-05-08 16:53 | 51.39799 | 95.84091 | 38978 ft | 481 kts | 122° |
| 2026-05-08 16:54 | 51.36173 | 95.93105 | 38968 ft | 482 kts | 122° |
| 2026-05-08 16:54 | 51.32515 | 96.02070 | 38974 ft | 481 kts | 122° |
| 2026-05-08 16:55 | 51.28852 | 96.11032 | 38982 ft | 481 kts | 122° |
| 2026-05-08 16:55 | 51.25198 | 96.19975 | 38973 ft | 480 kts | 122° |
| 2026-05-08 16:56 | 51.21551 | 96.28911 | 38983 ft | 480 kts | 122° |
| 2026-05-08 16:56 | 51.17912 | 96.37837 | 38982 ft | 480 kts | 122° |
| 2026-05-08 16:57 | 51.14247 | 96.46722 | 38983 ft | 479 kts | 122° |
| 2026-05-08 16:57 | 51.10599 | 96.55525 | 38989 ft | 479 kts | 122° |
| 2026-05-08 16:58 | 51.06902 | 96.64367 | 38985 ft | 479 kts | 122° |
| 2026-05-08 16:58 | 51.03228 | 96.73202 | 38990 ft | 479 kts | 122° |
| 2026-05-08 16:59 | 50.99553 | 96.81956 | 38987 ft | 479 kts | 122° |
| 2026-05-08 16:59 | 50.95860 | 96.90743 | 38983 ft | 479 kts | 122° |
| 2026-05-08 17:00 | 50.92173 | 96.99535 | 38988 ft | 479 kts | 122° |
| 2026-05-08 17:00 | 50.88494 | 97.08331 | 38993 ft | 479 kts | 122° |
| 2026-05-08 17:01 | 50.84758 | 97.17078 | 38981 ft | 479 kts | 123° |
| 2026-05-08 17:01 | 50.81044 | 97.25832 | 38987 ft | 479 kts | 123° |
| 2026-05-08 17:02 | 50.77293 | 97.34559 | 38984 ft | 479 kts | 123° |
| 2026-05-08 17:02 | 50.73575 | 97.43291 | 38987 ft | 479 kts | 123° |
| 2026-05-08 17:03 | 50.69838 | 97.52006 | 38987 ft | 480 kts | 123° |
| 2026-05-08 17:03 | 50.66119 | 97.60680 | 38992 ft | 480 kts | 123° |
| 2026-05-08 17:04 | 50.62348 | 97.69377 | 38998 ft | 480 kts | 124° |
| 2026-05-08 17:04 | 50.58462 | 97.77932 | 39004 ft | 480 kts | 125° |
| 2026-05-08 17:05 | 50.54600 | 97.86515 | 39008 ft | 481 kts | 123° |
| 2026-05-08 17:05 | 50.50838 | 97.95206 | 38998 ft | 481 kts | 123° |
| 2026-05-08 17:06 | 50.47033 | 98.03851 | 38993 ft | 481 kts | 124° |
| 2026-05-08 17:06 | 50.43214 | 98.12511 | 38989 ft | 482 kts | 124° |
| 2026-05-08 17:07 | 50.39402 | 98.21164 | 38989 ft | 483 kts | 124° |
| 2026-05-08 17:07 | 50.35581 | 98.29830 | 38986 ft | 484 kts | 124° |
| 2026-05-08 17:08 | 50.31734 | 98.38406 | 39000 ft | 484 kts | 124° |
| 2026-05-08 17:08 | 50.27881 | 98.47058 | 38995 ft | 485 kts | 124° |
| 2026-05-08 17:09 | 50.24001 | 98.55700 | 38982 ft | 486 kts | 124° |
| 2026-05-08 17:09 | 50.20092 | 98.64337 | 38983 ft | 487 kts | 124° |
| 2026-05-08 17:10 | 50.16205 | 98.73002 | 38980 ft | 487 kts | 124° |
| 2026-05-08 17:10 | 50.12277 | 98.81610 | 38974 ft | 487 kts | 124° |
| 2026-05-08 17:11 | 50.08382 | 98.90245 | 38973 ft | 486 kts | 124° |
| 2026-05-08 17:11 | 50.04447 | 98.98817 | 38971 ft | 486 kts | 124° |
| 2026-05-08 17:12 | 50.00540 | 99.07414 | 38965 ft | 486 kts | 124° |
| 2026-05-08 17:12 | 49.96604 | 99.15965 | 38988 ft | 486 kts | 124° |
| 2026-05-08 17:13 | 49.92684 | 99.24457 | 38980 ft | 487 kts | 124° |
| 2026-05-08 17:13 | 49.88745 | 99.33006 | 38984 ft | 487 kts | 124° |
| 2026-05-08 17:14 | 49.84807 | 99.41559 | 38985 ft | 487 kts | 124° |
| 2026-05-08 17:14 | 49.80847 | 99.50097 | 38986 ft | 488 kts | 125° |
| 2026-05-08 17:15 | 49.76870 | 99.58620 | 38993 ft | 488 kts | 124° |
| 2026-05-08 17:15 | 49.72876 | 99.67118 | 38977 ft | 488 kts | 125° |
| 2026-05-08 17:16 | 49.68898 | 99.75631 | 38981 ft | 488 kts | 125° |
| 2026-05-08 17:16 | 49.64896 | 99.84098 | 38982 ft | 488 kts | 125° |
| 2026-05-08 17:17 | 49.60914 | 99.92509 | 38983 ft | 488 kts | 125° |
| 2026-05-08 17:17 | 49.56857 | 100.00900 | 38996 ft | 488 kts | 125° |
| 2026-05-08 17:18 | 49.52850 | 100.09347 | 38994 ft | 488 kts | 124° |
| 2026-05-08 17:18 | 49.48847 | 100.17790 | 38969 ft | 489 kts | 125° |
| 2026-05-08 17:19 | 49.44811 | 100.26205 | 38984 ft | 488 kts | 124° |
| 2026-05-08 17:19 | 49.40769 | 100.34595 | 38964 ft | 488 kts | 125° |
| 2026-05-08 17:20 | 49.36770 | 100.42940 | 38965 ft | 488 kts | 125° |
| 2026-05-08 17:20 | 49.32730 | 100.51309 | 38995 ft | 488 kts | 125° |
| 2026-05-08 17:21 | 49.28673 | 100.59647 | 38980 ft | 488 kts | 125° |
| 2026-05-08 17:21 | 49.24623 | 100.67997 | 38986 ft | 488 kts | 125° |
| 2026-05-08 17:22 | 49.20558 | 100.76319 | 38981 ft | 488 kts | 125° |
| 2026-05-08 17:22 | 49.16485 | 100.84629 | 38993 ft | 488 kts | 125° |
| 2026-05-08 17:23 | 49.12414 | 100.92928 | 38986 ft | 488 kts | 125° |
| 2026-05-08 17:23 | 49.08346 | 101.01225 | 38990 ft | 488 kts | 125° |
| 2026-05-08 17:24 | 49.04300 | 101.09477 | 38989 ft | 488 kts | 125° |
| 2026-05-08 17:24 | 49.00217 | 101.17738 | 38982 ft | 488 kts | 126° |
| 2026-05-08 17:25 | 48.96124 | 101.25991 | 38982 ft | 488 kts | 126° |
| 2026-05-08 17:25 | 48.92006 | 101.34200 | 38987 ft | 488 kts | 126° |
| 2026-05-08 17:26 | 48.87905 | 101.42440 | 38994 ft | 488 kts | 126° |
| 2026-05-08 17:26 | 48.83779 | 101.50630 | 38995 ft | 488 kts | 126° |
| 2026-05-08 17:27 | 48.79662 | 101.58843 | 38998 ft | 489 kts | 126° |
| 2026-05-08 17:27 | 48.75552 | 101.66974 | 38998 ft | 489 kts | 126° |
| 2026-05-08 17:28 | 48.71389 | 101.75137 | 39007 ft | 489 kts | 127° |
| 2026-05-08 17:28 | 48.67202 | 101.83260 | 39007 ft | 490 kts | 126° |
| 2026-05-08 17:29 | 48.63059 | 101.91444 | 39010 ft | 490 kts | 126° |
| 2026-05-08 17:29 | 48.58884 | 101.99592 | 39007 ft | 490 kts | 126° |
| 2026-05-08 17:30 | 48.54720 | 102.07757 | 39026 ft | 490 kts | 126° |
| 2026-05-08 17:30 | 48.50526 | 102.15870 | 39026 ft | 490 kts | 126° |
| 2026-05-08 17:31 | 48.46346 | 102.23997 | 39023 ft | 490 kts | 127° |
| 2026-05-08 17:31 | 48.42182 | 102.32043 | 39027 ft | 490 kts | 126° |
| 2026-05-08 17:32 | 48.37981 | 102.40132 | 39027 ft | 490 kts | 127° |
| 2026-05-08 17:32 | 48.33774 | 102.48211 | 39041 ft | 490 kts | 127° |
| 2026-05-08 17:33 | 48.29570 | 102.56285 | 39050 ft | 490 kts | 126° |
| 2026-05-08 17:33 | 48.25373 | 102.64341 | 39048 ft | 489 kts | 127° |
| 2026-05-08 17:34 | 48.21186 | 102.72396 | 39043 ft | 489 kts | 126° |
| 2026-05-08 17:34 | 48.16958 | 102.80390 | 39051 ft | 490 kts | 127° |
| 2026-05-08 17:35 | 48.12748 | 102.88403 | 39038 ft | 489 kts | 127° |
| 2026-05-08 17:35 | 48.08532 | 102.96314 | 39040 ft | 489 kts | 127° |
| 2026-05-08 17:36 | 48.04312 | 103.04298 | 39036 ft | 489 kts | 127° |
| 2026-05-08 17:36 | 48.00077 | 103.12228 | 39053 ft | 488 kts | 127° |
| 2026-05-08 17:37 | 47.95848 | 103.20146 | 39045 ft | 488 kts | 127° |
| 2026-05-08 17:37 | 47.91624 | 103.28062 | 39049 ft | 487 kts | 127° |
| 2026-05-08 17:38 | 47.87361 | 103.35913 | 39046 ft | 487 kts | 128° |
| 2026-05-08 17:38 | 47.83089 | 103.43742 | 39054 ft | 486 kts | 127° |
| 2026-05-08 17:39 | 47.79581 | 103.50277 | 39068 ft | 486 kts | 128° |
| 2026-05-08 17:39 | 47.74638 | 103.59364 | 39047 ft | 485 kts | 127° |
| 2026-05-08 17:40 | 47.70402 | 103.67161 | 39056 ft | 485 kts | 128° |
| 2026-05-08 17:40 | 47.66841 | 103.73665 | 39061 ft | 484 kts | 128° |
| 2026-05-08 17:41 | 47.62600 | 103.81418 | 39051 ft | 484 kts | 128° |
| 2026-05-08 17:41 | 47.58372 | 103.89167 | 39046 ft | 483 kts | 128° |
| 2026-05-08 17:42 | 47.54174 | 103.96873 | 39055 ft | 483 kts | 128° |
| 2026-05-08 17:42 | 47.49918 | 104.04577 | 39054 ft | 483 kts | 129° |
| 2026-05-08 17:43 | 47.45677 | 104.12272 | 39056 ft | 482 kts | 128° |
| 2026-05-08 17:43 | 47.41407 | 104.19932 | 39053 ft | 483 kts | 129° |
| 2026-05-08 17:44 | 47.37136 | 104.27582 | 39054 ft | 483 kts | 129° |
| 2026-05-08 17:44 | 47.32872 | 104.35239 | 39048 ft | 483 kts | 129° |
| 2026-05-08 17:45 | 47.28604 | 104.42889 | 39047 ft | 483 kts | 129° |
| 2026-05-08 17:45 | 47.24319 | 104.50515 | 39046 ft | 484 kts | 129° |
| 2026-05-08 17:46 | 47.20017 | 104.58139 | 39051 ft | 484 kts | 129° |
| 2026-05-08 17:46 | 47.15724 | 104.65775 | 39039 ft | 485 kts | 129° |
| 2026-05-08 17:47 | 47.11427 | 104.73329 | 39036 ft | 485 kts | 129° |
| 2026-05-08 17:47 | 47.07814 | 104.79716 | 39030 ft | 486 kts | 129° |
| 2026-05-08 17:48 | 47.02783 | 104.88572 | 39027 ft | 486 kts | 129° |
| 2026-05-08 17:48 | 46.98455 | 104.96187 | 39026 ft | 486 kts | 129° |
| 2026-05-08 17:49 | 46.94132 | 105.03796 | 39022 ft | 486 kts | 129° |
| 2026-05-08 17:49 | 46.89800 | 105.11394 | 39013 ft | 486 kts | 130° |
| 2026-05-08 17:50 | 46.85441 | 105.18962 | 39014 ft | 486 kts | 129° |
| 2026-05-08 17:50 | 46.81100 | 105.26472 | 39014 ft | 487 kts | 130° |
| 2026-05-08 17:51 | 46.76716 | 105.34091 | 39011 ft | 487 kts | 130° |
| 2026-05-08 17:51 | 46.72362 | 105.41598 | 39002 ft | 488 kts | 129° |
| 2026-05-08 17:52 | 46.67961 | 105.49140 | 39004 ft | 489 kts | 130° |
| 2026-05-08 17:53 | 46.61356 | 105.60475 | 39000 ft | 489 kts | 130° |
| 2026-05-08 17:53 | 46.56952 | 105.68023 | 38995 ft | 489 kts | 130° |
| 2026-05-08 17:54 | 46.52530 | 105.75531 | 38994 ft | 489 kts | 130° |
| 2026-05-08 17:54 | 46.48123 | 105.83048 | 38989 ft | 488 kts | 130° |
| 2026-05-08 17:55 | 46.43690 | 105.90514 | 38982 ft | 488 kts | 131° |
| 2026-05-08 17:55 | 46.39256 | 105.97879 | 38979 ft | 487 kts | 130° |
| 2026-05-08 17:56 | 46.34844 | 106.05330 | 38954 ft | 487 kts | 130° |
| 2026-05-08 17:56 | 46.30450 | 106.12765 | 38973 ft | 486 kts | 130° |
| 2026-05-08 17:57 | 46.26027 | 106.20143 | 38959 ft | 486 kts | 130° |
| 2026-05-08 17:57 | 46.21610 | 106.27515 | 38966 ft | 485 kts | 130° |
| 2026-05-08 17:58 | 46.17197 | 106.34881 | 38953 ft | 485 kts | 131° |
| 2026-05-08 17:58 | 46.12775 | 106.42236 | 38948 ft | 485 kts | 130° |
| 2026-05-08 17:59 | 46.08343 | 106.49573 | 38945 ft | 485 kts | 131° |
| 2026-05-08 17:59 | 46.03899 | 106.56908 | 38935 ft | 486 kts | 131° |
| 2026-05-08 18:00 | 45.99482 | 106.64202 | 38930 ft | 486 kts | 131° |
| 2026-05-08 18:00 | 45.92828 | 106.75191 | 38930 ft | 485 kts | 131° |
| 2026-05-08 18:01 | 45.88397 | 106.82504 | 38931 ft | 485 kts | 131° |
| 2026-05-08 18:01 | 45.83915 | 106.89741 | 38932 ft | 484 kts | 131° |
| 2026-05-08 18:02 | 45.80190 | 106.95758 | 38917 ft | 485 kts | 131° |
| 2026-05-08 18:02 | 45.75014 | 107.04190 | 38895 ft | 484 kts | 131° |
| 2026-05-08 18:03 | 45.70556 | 107.11428 | 38892 ft | 485 kts | 131° |
| 2026-05-08 18:03 | 45.66088 | 107.18631 | 38892 ft | 484 kts | 131° |
| 2026-05-08 18:04 | 45.61620 | 107.25822 | 38884 ft | 483 kts | 131° |
| 2026-05-08 18:04 | 45.57157 | 107.33012 | 38879 ft | 483 kts | 131° |
| 2026-05-08 18:05 | 45.52705 | 107.40198 | 38861 ft | 483 kts | 131° |
| 2026-05-08 18:05 | 45.48256 | 107.47388 | 38854 ft | 484 kts | 132° |
| 2026-05-08 18:06 | 45.43750 | 107.54536 | 38838 ft | 484 kts | 132° |
| 2026-05-08 18:06 | 45.39267 | 107.61690 | 38835 ft | 484 kts | 132° |
| 2026-05-08 18:07 | 45.34775 | 107.68815 | 38836 ft | 484 kts | 132° |
| 2026-05-08 18:07 | 45.30277 | 107.75942 | 38834 ft | 484 kts | 132° |
| 2026-05-08 18:08 | 45.25804 | 107.83013 | 38823 ft | 484 kts | 132° |
| 2026-05-08 18:08 | 45.21307 | 107.90134 | 38821 ft | 484 kts | 132° |
| 2026-05-08 18:09 | 45.16821 | 107.97245 | 38819 ft | 484 kts | 133° |
| 2026-05-08 18:09 | 45.12297 | 108.04305 | 38811 ft | 484 kts | 133° |
| 2026-05-08 18:10 | 45.07780 | 108.11378 | 38811 ft | 484 kts | 133° |
| 2026-05-08 18:10 | 45.03244 | 108.18455 | 38801 ft | 484 kts | 133° |
| 2026-05-08 18:11 | 44.98735 | 108.25446 | 38792 ft | 484 kts | 133° |
| 2026-05-08 18:11 | 44.94197 | 108.32484 | 38791 ft | 484 kts | 133° |
| 2026-05-08 18:12 | 44.89625 | 108.39506 | 38779 ft | 485 kts | 134° |
| 2026-05-08 18:12 | 44.85063 | 108.46501 | 38778 ft | 485 kts | 133° |
| 2026-05-08 18:13 | 44.80522 | 108.53528 | 38765 ft | 485 kts | 133° |
| 2026-05-08 18:13 | 44.75958 | 108.60522 | 38762 ft | 485 kts | 134° |
| 2026-05-08 18:14 | 44.71399 | 108.67524 | 38758 ft | 485 kts | 134° |
| 2026-05-08 18:14 | 44.66830 | 108.74499 | 38743 ft | 485 kts | 133° |
| 2026-05-08 18:15 | 44.62277 | 108.81415 | 38737 ft | 485 kts | 134° |
| 2026-05-08 18:15 | 44.57709 | 108.88387 | 38735 ft | 485 kts | 134° |
| 2026-05-08 18:16 | 44.53121 | 108.95317 | 38726 ft | 485 kts | 134° |
| 2026-05-08 18:16 | 44.48532 | 109.02240 | 38710 ft | 484 kts | 134° |
| 2026-05-08 18:17 | 44.43951 | 109.09158 | 38708 ft | 484 kts | 134° |
| 2026-05-08 18:17 | 44.39371 | 109.16081 | 38700 ft | 485 kts | 134° |
| 2026-05-08 18:18 | 44.34795 | 109.23009 | 38686 ft | 485 kts | 134° |
| 2026-05-08 18:18 | 44.30198 | 109.29909 | 38677 ft | 485 kts | 135° |
| 2026-05-08 18:19 | 44.25594 | 109.36789 | 38675 ft | 485 kts | 134° |
| 2026-05-08 18:19 | 44.20964 | 109.43655 | 38676 ft | 485 kts | 134° |
| 2026-05-08 18:20 | 44.16357 | 109.50523 | 38681 ft | 485 kts | 135° |
| 2026-05-08 18:20 | 44.11757 | 109.57318 | 38674 ft | 485 kts | 134° |
| 2026-05-08 18:21 | 44.07148 | 109.64180 | 38675 ft | 485 kts | 135° |
| 2026-05-08 18:21 | 44.02519 | 109.71020 | 38669 ft | 485 kts | 135° |
| 2026-05-08 18:22 | 43.97890 | 109.77860 | 38668 ft | 485 kts | 135° |
| 2026-05-08 18:22 | 43.93264 | 109.84701 | 38658 ft | 486 kts | 135° |
| 2026-05-08 18:23 | 43.88608 | 109.91489 | 38658 ft | 486 kts | 135° |
| 2026-05-08 18:23 | 43.83967 | 109.98298 | 38660 ft | 486 kts | 135° |
| 2026-05-08 18:24 | 43.79343 | 110.05040 | 38663 ft | 486 kts | 135° |
| 2026-05-08 18:24 | 43.74646 | 110.11841 | 38656 ft | 485 kts | 135° |
| 2026-05-08 18:25 | 43.70025 | 110.18573 | 38657 ft | 485 kts | 135° |
| 2026-05-08 18:25 | 43.65352 | 110.25309 | 38657 ft | 486 kts | 136° |
| 2026-05-08 18:26 | 43.60679 | 110.32045 | 38649 ft | 486 kts | 136° |
| 2026-05-08 18:26 | 43.56796 | 110.37646 | 38659 ft | 486 kts | 136° |
| 2026-05-08 18:27 | 43.52911 | 110.43251 | 38656 ft | 486 kts | 136° |
| 2026-05-08 18:27 | 43.47457 | 110.51127 | 38645 ft | 486 kts | 136° |
| 2026-05-08 18:28 | 43.42820 | 110.57811 | 38651 ft | 485 kts | 136° |
| 2026-05-08 18:28 | 43.38128 | 110.64485 | 38658 ft | 485 kts | 136° |
| 2026-05-08 18:29 | 43.33438 | 110.71157 | 38654 ft | 485 kts | 136° |
| 2026-05-08 18:29 | 43.28752 | 110.77841 | 38653 ft | 485 kts | 136° |
| 2026-05-08 18:30 | 43.24031 | 110.84489 | 38658 ft | 486 kts | 136° |
| 2026-05-08 18:30 | 43.19401 | 110.91254 | 38659 ft | 487 kts | 133° |
| 2026-05-08 18:31 | 43.15136 | 110.98458 | 38750 ft | 488 kts | 130° |
| 2026-05-08 18:31 | 43.10917 | 111.05732 | 38761 ft | 488 kts | 130° |
| 2026-05-08 18:32 | 43.06662 | 111.12888 | 38763 ft | 488 kts | 131° |
| 2026-05-08 18:32 | 43.02390 | 111.20103 | 38757 ft | 488 kts | 131° |
| 2026-05-08 18:33 | 42.98089 | 111.27287 | 38757 ft | 488 kts | 131° |
| 2026-05-08 18:33 | 42.93803 | 111.34492 | 38758 ft | 488 kts | 131° |
| 2026-05-08 18:34 | 42.89484 | 111.41665 | 38759 ft | 489 kts | 131° |
| 2026-05-08 18:34 | 42.85194 | 111.48861 | 38778 ft | 489 kts | 131° |
| 2026-05-08 18:35 | 42.80883 | 111.56022 | 38779 ft | 489 kts | 131° |
| 2026-05-08 18:35 | 42.76600 | 111.63134 | 38792 ft | 489 kts | 131° |
| 2026-05-08 18:36 | 42.72289 | 111.70290 | 38781 ft | 489 kts | 131° |
| 2026-05-08 18:36 | 42.67983 | 111.77438 | 38793 ft | 488 kts | 131° |
| 2026-05-08 18:37 | 42.63659 | 111.84572 | 38797 ft | 488 kts | 132° |
| 2026-05-08 18:37 | 42.59328 | 111.91684 | 38801 ft | 489 kts | 131° |
| 2026-05-08 18:38 | 42.55014 | 111.98838 | 38791 ft | 489 kts | 131° |
| 2026-05-08 18:38 | 42.50746 | 112.06033 | 38811 ft | 490 kts | 131° |
| 2026-05-08 18:39 | 42.46457 | 112.13189 | 38814 ft | 490 kts | 131° |
| 2026-05-08 18:39 | 42.42176 | 112.20364 | 38816 ft | 490 kts | 131° |
| 2026-05-08 18:40 | 42.37873 | 112.27514 | 38816 ft | 490 kts | 131° |
| 2026-05-08 18:40 | 42.33573 | 112.34662 | 38820 ft | 490 kts | 131° |
| 2026-05-08 18:41 | 42.29299 | 112.41774 | 38828 ft | 491 kts | 131° |
| 2026-05-08 18:41 | 42.24981 | 112.48914 | 38832 ft | 491 kts | 131° |
| 2026-05-08 18:42 | 42.20655 | 112.56056 | 38848 ft | 491 kts | 131° |
| 2026-05-08 18:42 | 42.16331 | 112.63192 | 38836 ft | 491 kts | 131° |
| 2026-05-08 18:43 | 42.12007 | 112.70324 | 38850 ft | 491 kts | 131° |
| 2026-05-08 18:43 | 42.07679 | 112.77461 | 38855 ft | 492 kts | 131° |
| 2026-05-08 18:44 | 42.03330 | 112.84575 | 38858 ft | 492 kts | 131° |
| 2026-05-08 18:44 | 41.98981 | 112.91684 | 38864 ft | 492 kts | 131° |
| 2026-05-08 18:45 | 41.94609 | 112.98760 | 38872 ft | 492 kts | 131° |
| 2026-05-08 18:45 | 41.90291 | 113.05814 | 38879 ft | 491 kts | 131° |
| 2026-05-08 18:46 | 41.85921 | 113.12864 | 38882 ft | 492 kts | 131° |
| 2026-05-08 18:46 | 41.81016 | 113.19023 | 38911 ft | 478 kts | 159° |
| 2026-05-08 18:47 | 41.74777 | 113.21823 | 38903 ft | 475 kts | 166° |
| 2026-05-08 18:47 | 41.68632 | 113.25220 | 38898 ft | 481 kts | 158° |
| 2026-05-08 18:48 | 41.62637 | 113.29196 | 38903 ft | 481 kts | 158° |
| 2026-05-08 18:48 | 41.56615 | 113.33081 | 38911 ft | 480 kts | 159° |
| 2026-05-08 18:49 | 41.50571 | 113.36904 | 38923 ft | 480 kts | 158° |
| 2026-05-08 18:49 | 41.44527 | 113.40728 | 38922 ft | 480 kts | 159° |
| 2026-05-08 18:50 | 41.38494 | 113.44564 | 38924 ft | 480 kts | 159° |
| 2026-05-08 18:50 | 41.32491 | 113.48343 | 38934 ft | 480 kts | 158° |
| 2026-05-08 18:51 | 41.26442 | 113.52159 | 38944 ft | 480 kts | 159° |
| 2026-05-08 18:51 | 41.20386 | 113.55929 | 38938 ft | 480 kts | 159° |
| 2026-05-08 18:52 | 41.14350 | 113.59734 | 38946 ft | 479 kts | 159° |
| 2026-05-08 18:52 | 41.08307 | 113.63504 | 38948 ft | 480 kts | 159° |
| 2026-05-08 18:53 | 41.02308 | 113.67258 | 38948 ft | 480 kts | 159° |
| 2026-05-08 18:53 | 40.96267 | 113.71017 | 38960 ft | 479 kts | 159° |
| 2026-05-08 18:54 | 40.90224 | 113.74778 | 38956 ft | 480 kts | 159° |
| 2026-05-08 18:54 | 40.84189 | 113.78532 | 38966 ft | 479 kts | 159° |
| 2026-05-08 18:55 | 40.75139 | 113.84150 | 38968 ft | 479 kts | 159° |
| 2026-05-08 18:56 | 40.69108 | 113.87892 | 38984 ft | 479 kts | 159° |
| 2026-05-08 18:56 | 40.63116 | 113.91601 | 38968 ft | 479 kts | 159° |
| 2026-05-08 18:57 | 40.57073 | 113.95341 | 38971 ft | 479 kts | 159° |
| 2026-05-08 18:57 | 40.51042 | 113.99074 | 38974 ft | 479 kts | 159° |
| 2026-05-08 18:58 | 40.44968 | 114.02698 | 38966 ft | 479 kts | 160° |
| 2026-05-08 18:58 | 40.38837 | 114.06055 | 38989 ft | 473 kts | 170° |
| 2026-05-08 18:59 | 40.32419 | 114.07568 | 38984 ft | 467 kts | 177° |
| 2026-05-08 18:59 | 40.26019 | 114.08973 | 38982 ft | 470 kts | 174° |
| 2026-05-08 19:00 | 40.20627 | 114.10356 | 38986 ft | 471 kts | 174° |
| 2026-05-08 19:00 | 40.13147 | 114.12311 | 38979 ft | 471 kts | 174° |
| 2026-05-08 19:00 | 40.09920 | 114.13128 | 38782 ft | 474 kts | 175° |
| 2026-05-08 19:01 | 40.06668 | 114.13947 | 38322 ft | 476 kts | 174° |
| 2026-05-08 19:01 | 40.03413 | 114.14786 | 37692 ft | 476 kts | 174° |
| 2026-05-08 19:01 | 40.00207 | 114.15617 | 37085 ft | 475 kts | 174° |
| 2026-05-08 19:01 | 39.96973 | 114.16457 | 36509 ft | 474 kts | 174° |
| 2026-05-08 19:02 | 39.93741 | 114.17335 | 35948 ft | 474 kts | 173° |
| 2026-05-08 19:02 | 39.90507 | 114.18188 | 35410 ft | 474 kts | 174° |
| 2026-05-08 19:02 | 39.87268 | 114.19036 | 34851 ft | 475 kts | 173° |
| 2026-05-08 19:02 | 39.84029 | 114.19907 | 34315 ft | 476 kts | 173° |
| 2026-05-08 19:03 | 39.80776 | 114.20771 | 33773 ft | 477 kts | 173° |
| 2026-05-08 19:03 | 39.77515 | 114.21623 | 33173 ft | 478 kts | 173° |
| 2026-05-08 19:03 | 39.74255 | 114.22484 | 32590 ft | 479 kts | 173° |
| 2026-05-08 19:03 | 39.70984 | 114.23342 | 32023 ft | 479 kts | 173° |
| 2026-05-08 19:04 | 39.67712 | 114.24193 | 31457 ft | 479 kts | 173° |
| 2026-05-08 19:04 | 39.64444 | 114.25033 | 30904 ft | 479 kts | 173° |
| 2026-05-08 19:04 | 39.61169 | 114.25884 | 30365 ft | 480 kts | 172° |
| 2026-05-08 19:04 | 39.57911 | 114.26765 | 29804 ft | 476 kts | 172° |
| 2026-05-08 19:05 | 39.54689 | 114.27602 | 29178 ft | 467 kts | 173° |
| 2026-05-08 19:05 | 39.51520 | 114.28431 | 28576 ft | 459 kts | 172° |
| 2026-05-08 19:05 | 39.48415 | 114.29251 | 27979 ft | 452 kts | 173° |
| 2026-05-08 19:05 | 39.45388 | 114.30029 | 27406 ft | 446 kts | 172° |
| 2026-05-08 19:06 | 39.42360 | 114.30830 | 26832 ft | 441 kts | 172° |
| 2026-05-08 19:06 | 39.39370 | 114.31624 | 26278 ft | 436 kts | 172° |
| 2026-05-08 19:06 | 39.36409 | 114.32385 | 25749 ft | 431 kts | 172° |
| 2026-05-08 19:06 | 39.33483 | 114.33138 | 25201 ft | 426 kts | 172° |
| 2026-05-08 19:07 | 39.30588 | 114.33883 | 24675 ft | 422 kts | 172° |
| 2026-05-08 19:07 | 39.27727 | 114.34611 | 24145 ft | 417 kts | 172° |
| 2026-05-08 19:07 | 39.24893 | 114.35322 | 23640 ft | 413 kts | 172° |
| 2026-05-08 19:07 | 39.22093 | 114.36051 | 23056 ft | 408 kts | 171° |
| 2026-05-08 19:08 | 39.19322 | 114.36781 | 22467 ft | 404 kts | 172° |
| 2026-05-08 19:08 | 39.16576 | 114.37484 | 21894 ft | 400 kts | 172° |
| 2026-05-08 19:08 | 39.13856 | 114.38185 | 21315 ft | 397 kts | 171° |
| 2026-05-08 19:08 | 39.11195 | 114.38880 | 20761 ft | 394 kts | 171° |
| 2026-05-08 19:09 | 39.08517 | 114.39571 | 20213 ft | 391 kts | 172° |
| 2026-05-08 19:09 | 39.05859 | 114.40246 | 19692 ft | 388 kts | 172° |
| 2026-05-08 19:09 | 39.03219 | 114.40901 | 19173 ft | 385 kts | 171° |
| 2026-05-08 19:09 | 39.00606 | 114.41578 | 18644 ft | 381 kts | 171° |
| 2026-05-08 19:10 | 38.98027 | 114.42238 | 18125 ft | 375 kts | 172° |
| 2026-05-08 19:10 | 38.95495 | 114.42872 | 17536 ft | 364 kts | 171° |
| 2026-05-08 19:10 | 38.93055 | 114.43504 | 16955 ft | 350 kts | 172° |
| 2026-05-08 19:10 | 38.90696 | 114.44089 | 16314 ft | 341 kts | 172° |
| 2026-05-08 19:11 | 38.88399 | 114.44676 | 15680 ft | 332 kts | 171° |
| 2026-05-08 19:11 | 38.86154 | 114.45258 | 15070 ft | 326 kts | 171° |
| 2026-05-08 19:11 | 38.83953 | 114.45823 | 14464 ft | 319 kts | 171° |
| 2026-05-08 19:11 | 38.81787 | 114.46374 | 13865 ft | 314 kts | 171° |
| 2026-05-08 19:12 | 38.79661 | 114.46909 | 13222 ft | 309 kts | 171° |
| 2026-05-08 19:12 | 38.77565 | 114.47435 | 12580 ft | 304 kts | 171° |
| 2026-05-08 19:12 | 38.75498 | 114.47958 | 11895 ft | 302 kts | 171° |
| 2026-05-08 19:12 | 38.73436 | 114.48476 | 11144 ft | 302 kts | 171° |
| 2026-05-08 19:13 | 38.71378 | 114.49000 | 10436 ft | 301 kts | 171° |
| 2026-05-08 19:13 | 38.69325 | 114.49520 | 9724 ft | 300 kts | 171° |
| 2026-05-08 19:13 | 38.67311 | 114.50026 | 8974 ft | 298 kts | 172° |
| 2026-05-08 19:13 | 38.65279 | 114.50529 | 8227 ft | 296 kts | 172° |
| 2026-05-08 19:14 | 38.63263 | 114.51042 | 7487 ft | 294 kts | 173° |
| 2026-05-08 19:14 | 38.61261 | 114.51544 | 6773 ft | 292 kts | 173° |
| 2026-05-08 19:14 | 38.59274 | 114.52054 | 6036 ft | 290 kts | 174° |
| 2026-05-08 19:14 | 38.57966 | 114.52381 | 5551 ft | 288 kts | 174° |
| 2026-05-08 19:15 | 38.56003 | 114.52868 | 4833 ft | 286 kts | 174° |
| 2026-05-08 19:15 | 38.54056 | 114.53353 | 4125 ft | 283 kts | 174° |
| 2026-05-08 19:15 | 38.51517 | 114.53996 | 3391 ft | 273 kts | 173° |
| 2026-05-08 19:15 | 38.50288 | 114.54317 | 3273 ft | 261 kts | 173° |
| 2026-05-08 19:16 | 38.48562 | 114.54773 | 3105 ft | 244 kts | 174° |
| 2026-05-08 19:16 | 38.46968 | 114.55193 | 3050 ft | 224 kts | 174° |
| 2026-05-08 19:16 | 38.45507 | 114.55723 | 3098 ft | 219 kts | 163° |
| 2026-05-08 19:16 | 38.44109 | 114.56497 | 3050 ft | 222 kts | 162° |
| 2026-05-08 19:17 | 38.42810 | 114.57403 | 3016 ft | 209 kts | 152° |
| 2026-05-08 19:17 | 38.41657 | 114.58432 | 3032 ft | 200 kts | 154° |
| 2026-05-08 19:17 | 38.40494 | 114.59393 | 3021 ft | 198 kts | 154° |
| 2026-05-08 19:17 | 38.39342 | 114.60346 | 2877 ft | 195 kts | 153° |
| 2026-05-08 19:18 | 38.38228 | 114.61278 | 2708 ft | 186 kts | 154° |
| 2026-05-08 19:18 | 38.37127 | 114.62185 | 2108 ft | 193 kts | 152° |
| 2026-05-08 19:18 | 38.36035 | 114.63089 | 1852 ft | 182 kts | 149° |
| 2026-05-08 19:18 | 38.34986 | 114.63956 | 1594 ft | 177 kts | 148° |
| 2026-05-08 19:19 | 38.34006 | 114.64780 | 1333 ft | 160 kts | 149° |
| 2026-05-08 19:19 | 38.33102 | 114.65526 | 1081 ft | 151 kts | 148° |
| 2026-05-08 19:19 | 38.32257 | 114.66271 | 967 ft | 147 kts | 145° |
| 2026-05-08 19:19 | 38.31430 | 114.66989 | 830 ft | 140 kts | 148° |
| 2026-05-08 19:20 | 38.30613 | 114.67652 | 588 ft | 138 kts | 147° |
| 2026-05-08 19:20 | 38.30088 | 114.68083 | 435 ft | 133 kts | 146° |
| 2026-05-08 19:20 | 38.29084 | 114.68905 | 251 ft | 127 kts | 148° |
| 2026-05-08 19:20 | 38.28427 | 114.69439 | 242 ft | 91 kts | 147° |
| 2026-05-08 19:21 | 38.28075 | 114.69725 | 242 ft | 36 kts | 147° |
| 2026-05-08 19:21 | 38.27921 | 114.69848 | 244 ft | 19 kts | 147° |
| 2026-05-08 19:21 | 38.27860 | 114.69831 | 244 ft | 10 kts | 232° |
| 2026-05-08 19:21 | 38.27814 | 114.69743 | 242 ft | 13 kts | 237° |
| 2026-05-08 19:22 | 38.27793 | 114.69686 | 242 ft | 2 kts | 295° |
| 2026-05-08 19:22 | 38.27804 | 114.69681 | 242 ft | 4 kts | 336° |
| 2026-05-08 19:22 | 38.27852 | 114.69650 | 241 ft | 11 kts | 329° |
| 2026-05-08 19:22 | 38.27933 | 114.69583 | 241 ft | 16 kts | 327° |
| 2026-05-08 19:23 | 38.28032 | 114.69503 | 241 ft | 17 kts | 328° |
| 2026-05-08 19:23 | 38.28138 | 114.69418 | 241 ft | 19 kts | 327° |
| 2026-05-08 19:23 | 38.28249 | 114.69326 | 242 ft | 20 kts | 327° |
| 2026-05-08 19:23 | 38.28367 | 114.69230 | 242 ft | 20 kts | 327° |
| 2026-05-08 19:24 | 38.28489 | 114.69131 | 242 ft | 21 kts | 328° |
| 2026-05-08 19:24 | 38.28618 | 114.69028 | 242 ft | 22 kts | 328° |
| 2026-05-08 19:24 | 38.28750 | 114.68919 | 242 ft | 23 kts | 327° |
| 2026-05-08 19:24 | 38.28888 | 114.68804 | 241 ft | 24 kts | 327° |
| 2026-05-08 19:25 | 38.29028 | 114.68691 | 241 ft | 20 kts | 327° |
| 2026-05-08 19:25 | 38.29093 | 114.68622 | 241 ft | 6 kts | 284° |
| 2026-05-08 19:25 | 38.29077 | 114.68585 | 241 ft | 9 kts | 232° |
| 2026-05-08 19:25 | 38.29015 | 114.68483 | 241 ft | 17 kts | 235° |
| 2026-05-08 19:26 | 38.28964 | 114.68363 | 241 ft | 10 kts | 250° |
| 2026-05-08 19:26 | 38.29000 | 114.68313 | 241 ft | 9 kts | 328° |
| 2026-05-08 19:26 | 38.29042 | 114.68279 | 241 ft | 0 kts | 326° |
| 2026-05-08 20:16 | 38.29028 | 114.68290 | 241 ft | 3 kts | 326° |
| 2026-05-08 20:16 | 38.29013 | 114.68303 | 241 ft | 3 kts | 326° |
| 2026-05-08 20:16 | 38.28995 | 114.68314 | 241 ft | 3 kts | 355° |
| 2026-05-08 20:17 | 38.28976 | 114.68312 | 241 ft | 3 kts | 28° |
| 2026-05-08 20:17 | 38.28961 | 114.68297 | 241 ft | 3 kts | 60° |
| 2026-05-08 20:17 | 38.28955 | 114.68282 | 241 ft | 0 kts | 60° |
| 2026-05-08 20:20 | 38.28967 | 114.68313 | 241 ft | 8 kts | 66° |
| 2026-05-08 20:20 | 38.28992 | 114.68406 | 241 ft | 14 kts | 72° |
| 2026-05-08 20:20 | 38.29025 | 114.68528 | 241 ft | 13 kts | 64° |
| 2026-05-08 20:21 | 38.29076 | 114.68613 | 241 ft | 8 kts | 44° |
| 2026-05-08 20:21 | 38.29121 | 114.68610 | 241 ft | 7 kts | 328° |
| 2026-05-08 20:21 | 38.29163 | 114.68577 | 241 ft | 8 kts | 328° |
| 2026-05-08 20:21 | 38.29210 | 114.68541 | 241 ft | 8 kts | 332° |
| 2026-05-08 20:22 | 38.29264 | 114.68525 | 241 ft | 8 kts | 15° |
| 2026-05-08 20:22 | 38.29302 | 114.68574 | 242 ft | 8 kts | 58° |
| 2026-05-08 20:22 | 38.29331 | 114.68639 | 242 ft | 9 kts | 61° |
| 2026-05-08 20:22 | 38.29327 | 114.68709 | 241 ft | 9 kts | 136° |
| 2026-05-08 20:23 | 38.29308 | 114.68724 | 241 ft | 0 kts | 147° |
| 2026-05-08 20:23 | 38.29227 | 114.68789 | 240 ft | 39 kts | 148° |
| 2026-05-08 20:24 | 38.28802 | 114.69135 | 242 ft | 105 kts | 147° |
| 2026-05-08 20:24 | 38.28020 | 114.69765 | 243 ft | 159 kts | 147° |
| 2026-05-08 20:24 | 38.26991 | 114.70593 | 495 ft | 184 kts | 148° |
| 2026-05-08 20:24 | 38.25909 | 114.71441 | 1280 ft | 178 kts | 149° |
| 2026-05-08 20:25 | 38.24903 | 114.72329 | 2051 ft | 178 kts | 146° |
| 2026-05-08 20:25 | 38.24136 | 114.73641 | 2624 ft | 203 kts | 107° |
| 2026-05-08 20:25 | 38.24271 | 114.75439 | 3228 ft | 213 kts | 59° |
| 2026-05-08 20:25 | 38.25241 | 114.76887 | 3706 ft | 221 kts | 36° |
| 2026-05-08 20:26 | 38.26478 | 114.78136 | 4335 ft | 233 kts | 31° |
| 2026-05-08 20:26 | 38.27858 | 114.79336 | 4923 ft | 247 kts | 27° |
| 2026-05-08 20:26 | 38.29331 | 114.80550 | 5685 ft | 257 kts | 28° |
| 2026-05-08 20:26 | 38.30835 | 114.81781 | 6507 ft | 266 kts | 28° |
| 2026-05-08 20:27 | 38.32574 | 114.82670 | 7229 ft | 268 kts | 0° |
| 2026-05-08 20:27 | 38.34335 | 114.82206 | 8100 ft | 264 kts | 328° |
| 2026-05-08 20:27 | 38.35893 | 114.80898 | 8954 ft | 272 kts | 321° |
| 2026-05-08 20:27 | 38.37457 | 114.79478 | 9902 ft | 280 kts | 323° |
| 2026-05-08 20:28 | 38.39110 | 114.78062 | 10575 ft | 296 kts | 324° |
| 2026-05-08 20:28 | 38.40909 | 114.76591 | 11125 ft | 315 kts | 326° |
| 2026-05-08 20:28 | 38.42814 | 114.75075 | 11756 ft | 330 kts | 326° |
| 2026-05-08 20:28 | 38.44801 | 114.73501 | 12492 ft | 342 kts | 327° |
| 2026-05-08 20:29 | 38.46864 | 114.71901 | 13225 ft | 352 kts | 327° |